createdAt,value
2018-09-10T00:00:39.981Z,100296.06
2018-09-10T00:03:07.545Z,100298.19
2018-09-10T00:05:35.090Z,100294.11
2018-09-10T00:08:03.269Z,100295.58
2018-09-10T00:10:30.789Z,100301.94
2018-09-10T00:12:59.515Z,100300.08
2018-09-10T00:15:27.083Z,100298.74
2018-09-10T00:17:54.569Z,100295.23
2018-09-10T00:20:22.109Z,100290.00
2018-09-10T00:22:49.659Z,100290.86
2018-09-10T00:25:17.209Z,100297.05
2018-09-10T00:27:44.717Z,100290.34
2018-09-10T00:30:12.228Z,100291.56
2018-09-10T00:32:39.720Z,100287.75
2018-09-10T00:35:07.273Z,100293.17
2018-09-10T00:37:34.798Z,100291.56
2018-09-10T00:40:02.347Z,100295.98
2018-09-10T00:42:30.483Z,100299.75
2018-09-10T00:44:58.781Z,100296.77
2018-09-10T00:47:27.235Z,100284.56
2018-09-10T00:49:54.755Z,100282.09
2018-09-10T00:52:22.278Z,100281.80
2018-09-10T00:54:49.855Z,100274.61
2018-09-10T00:57:17.850Z,100277.13
2018-09-10T00:59:45.365Z,100279.81
2018-09-10T01:02:12.902Z,100285.17
2018-09-10T01:04:40.421Z,100286.52
2018-09-10T01:07:08.044Z,100279.46
2018-09-10T01:09:35.606Z,100285.95
2018-09-10T01:12:03.119Z,100290.76
2018-09-10T01:14:30.725Z,100283.36
2018-09-10T01:16:59.250Z,100290.36
2018-09-10T01:19:27.125Z,100285.47
2018-09-10T01:21:55.601Z,100280.63
2018-09-10T01:24:23.479Z,100281.31
2018-09-10T01:26:50.976Z,100288.16
2018-09-10T01:29:18.483Z,100292.05
2018-09-10T01:31:46.006Z,100286.17
2018-09-10T01:34:18.539Z,100289.58
2018-09-10T01:36:46.090Z,100285.77
2018-09-10T01:39:13.606Z,100276.78
2018-09-10T01:41:41.132Z,100279.03
2018-09-10T01:44:08.735Z,100268.97
2018-09-10T01:46:37.910Z,100273.04
2018-09-10T01:49:05.424Z,100267.75
2018-09-10T01:51:33.739Z,100277.36
2018-09-10T01:54:02.040Z,100275.50
2018-09-10T01:56:30.074Z,100277.36
2018-09-10T01:58:57.575Z,100284.28
2018-09-10T02:01:25.062Z,100282.56
2018-09-10T02:03:52.608Z,100286.23
2018-09-10T02:06:20.105Z,100290.61
2018-09-10T02:08:48.220Z,100288.31
2018-09-10T02:11:16.336Z,100288.14
2018-09-10T02:13:43.856Z,100284.63
2018-09-10T02:16:15.350Z,100284.63
2018-09-10T02:18:42.861Z,100269.78
2018-09-10T02:21:11.005Z,100258.84
2018-09-10T02:23:39.018Z,100252.91
2018-09-10T02:26:06.574Z,100261.61
2018-09-10T02:28:34.393Z,100267.28
2018-09-10T02:31:02.010Z,100260.11
2018-09-10T02:33:29.568Z,100259.77
2018-09-10T02:35:57.096Z,100254.67
2018-09-10T02:38:24.711Z,100254.48
2018-09-10T02:40:52.190Z,100253.58
2018-09-10T02:43:19.727Z,100257.39
2018-09-10T02:45:47.566Z,100255.83
2018-09-10T02:48:15.080Z,100256.61
2018-09-10T02:50:42.609Z,100259.38
2018-09-10T02:53:10.126Z,100254.79
2018-09-10T02:55:37.656Z,100246.80
2018-09-10T02:58:05.198Z,100247.78
2018-09-10T03:00:32.696Z,100255.48
2018-09-10T03:03:00.220Z,100248.13
2018-09-10T03:05:27.749Z,100251.55
2018-09-10T03:07:55.687Z,100251.89
2018-09-10T03:10:23.694Z,100259.08
2018-09-10T03:12:51.189Z,100252.02
2018-09-10T03:15:18.740Z,100255.91
2018-09-10T03:17:46.302Z,100252.02
2018-09-10T03:20:13.831Z,100253.87
2018-09-10T03:22:41.691Z,100258.52
2018-09-10T03:25:09.207Z,100263.18
2018-09-10T03:27:36.754Z,100261.14
2018-09-10T03:30:04.286Z,100258.72
2018-09-10T03:32:31.786Z,100258.89
2018-09-10T03:34:59.362Z,100260.23
2018-09-10T03:37:26.898Z,100249.85
2018-09-10T03:39:54.417Z,100255.65
2018-09-10T03:42:21.926Z,100256.34
2018-09-10T03:44:49.462Z,100249.91
2018-09-10T03:47:17.067Z,100261.13
2018-09-10T03:49:44.590Z,100261.30
2018-09-10T03:52:12.461Z,100261.58
2018-09-10T03:54:40.012Z,100258.04
2018-09-10T03:57:07.619Z,100268.70
2018-09-10T03:59:35.155Z,100267.45
2018-09-10T04:02:02.686Z,100273.77
2018-09-10T04:04:30.251Z,100271.52
2018-09-10T04:06:58.385Z,100270.20
2018-09-10T04:09:25.889Z,100274.39
2018-09-10T04:11:53.458Z,100280.59
2018-09-10T04:14:21.340Z,100277.42
2018-09-10T04:16:48.854Z,100278.02
2018-09-10T04:19:16.455Z,100278.41
2018-09-10T04:21:44.310Z,100278.48
2018-09-10T04:24:11.826Z,100278.53
2018-09-10T04:26:39.365Z,100283.84
2018-09-10T04:29:06.930Z,100292.63
2018-09-10T04:31:34.443Z,100293.70
2018-09-10T04:34:02.425Z,100310.38
2018-09-10T04:36:29.965Z,100310.72
2018-09-10T04:38:57.507Z,100308.94
2018-09-10T04:41:25.551Z,100309.36
2018-09-10T04:43:54.080Z,100314.29
2018-09-10T04:46:21.603Z,100318.02
2018-09-10T04:48:49.521Z,100321.54
2018-09-10T04:51:18.625Z,100311.70
2018-09-10T04:53:46.212Z,100310.77
2018-09-10T04:56:14.090Z,100311.95
2018-09-10T04:58:47.791Z,100314.38
2018-09-10T05:01:15.442Z,100307.41
2018-09-10T05:03:43.438Z,100313.14
2018-09-10T05:06:10.994Z,100305.53
2018-09-10T05:08:39.246Z,100309.20
2018-09-10T05:11:07.237Z,100305.59
2018-09-10T05:13:34.766Z,100310.17
2018-09-10T05:16:02.330Z,100311.05
2018-09-10T05:18:30.182Z,100311.61
2018-09-10T05:20:57.762Z,100312.97
2018-09-10T05:23:26.433Z,100315.36
2018-09-10T05:25:56.971Z,100320.61
2018-09-10T05:28:24.691Z,100320.62
2018-09-10T05:30:52.194Z,100316.80
2018-09-10T05:33:20.120Z,100316.66
2018-09-10T05:35:47.708Z,100315.98
2018-09-10T05:38:15.236Z,100317.71
2018-09-10T05:40:43.094Z,100321.08
2018-09-10T05:43:11.265Z,100317.38
2018-09-10T05:45:39.499Z,100326.33
2018-09-10T05:48:07.452Z,100325.47
2018-09-10T05:50:34.973Z,100316.55
2018-09-10T05:53:02.531Z,100318.05
2018-09-10T05:55:31.518Z,100327.48
2018-09-10T05:57:59.034Z,100331.19
2018-09-10T06:00:26.590Z,100331.19
2018-09-10T06:02:54.394Z,100337.26
2018-09-10T06:05:22.056Z,100332.91
2018-09-10T06:07:49.586Z,100341.00
2018-09-10T06:10:17.454Z,100342.05
2018-09-10T06:12:46.559Z,100347.97
2018-09-10T06:15:14.096Z,100346.66
2018-09-10T06:17:42.241Z,100347.67
2018-09-10T06:20:09.765Z,100345.16
2018-09-10T06:22:37.959Z,100347.70
2018-09-10T06:25:07.138Z,100358.16
2018-09-10T06:27:34.705Z,100376.73
2018-09-10T06:30:02.280Z,100385.02
2018-09-10T06:32:30.144Z,100378.61
2018-09-10T06:34:57.707Z,100370.33
2018-09-10T06:37:25.256Z,100362.76
2018-09-10T06:39:53.900Z,100368.52
2018-09-10T06:42:21.487Z,100372.39
2018-09-10T06:44:49.120Z,100371.67
2018-09-10T06:47:17.021Z,100380.07
2018-09-10T06:49:44.539Z,100389.13
2018-09-10T06:52:12.046Z,100401.94
2018-09-10T06:54:40.740Z,100405.50
2018-09-10T06:57:08.272Z,100401.12
2018-09-10T06:59:35.857Z,100392.20
2018-09-10T07:02:03.709Z,100389.02
2018-09-10T07:04:31.279Z,100384.16
2018-09-10T07:06:58.814Z,100365.13
2018-09-10T07:09:27.621Z,100368.86
2018-09-10T07:11:55.177Z,100363.80
2018-09-10T07:14:22.794Z,100360.27
2018-09-10T07:16:50.857Z,100367.54
2018-09-10T07:19:18.413Z,100373.98
2018-09-10T07:21:45.930Z,100374.98
2018-09-10T07:24:13.982Z,100381.40
2018-09-10T07:26:41.575Z,100387.31
2018-09-10T07:29:09.204Z,100393.60
2018-09-10T07:31:37.146Z,100402.56
2018-09-10T07:34:04.690Z,100397.31
2018-09-10T07:36:37.335Z,100391.42
2018-09-10T07:39:05.203Z,100391.42
2018-09-10T07:41:32.791Z,100395.31
2018-09-10T07:44:01.664Z,100392.95
2018-09-10T07:46:29.676Z,100392.84
2018-09-10T07:48:57.283Z,100397.78
2018-09-10T07:51:25.409Z,100393.09
2018-09-10T07:53:53.336Z,100395.28
2018-09-10T07:56:21.129Z,100388.04
2018-09-10T07:58:49.700Z,100390.73
2018-09-10T08:01:17.653Z,100402.38
2018-09-10T08:03:46.851Z,100398.17
2018-09-10T08:06:14.422Z,100398.19
2018-09-10T08:08:42.360Z,100394.77
2018-09-10T08:11:09.923Z,100398.84
2018-09-10T08:13:37.484Z,100407.63
2018-09-10T08:16:05.493Z,100412.67
2018-09-10T08:18:33.522Z,100415.06
2018-09-10T08:21:01.116Z,100415.72
2018-09-10T08:23:28.964Z,100425.35
2018-09-10T08:25:58.251Z,100423.34
2018-09-10T08:28:25.785Z,100420.12
2018-09-10T08:30:54.589Z,100420.30
2018-09-10T08:33:22.149Z,100424.04
2018-09-10T08:35:49.706Z,100422.84
2018-09-10T08:38:18.320Z,100429.11
2018-09-10T08:40:45.874Z,100439.26
2018-09-10T08:43:13.413Z,100447.20
2018-09-10T08:45:42.100Z,100453.44
2018-09-10T08:48:10.237Z,100451.08
2018-09-10T08:50:39.320Z,100441.08
2018-09-10T08:53:08.020Z,100434.81
2018-09-10T08:55:35.643Z,100433.74
2018-09-10T08:58:03.223Z,100427.45
2018-09-10T09:00:31.105Z,100420.28
2018-09-10T09:02:58.649Z,100423.69
2018-09-10T09:05:26.296Z,100428.20
2018-09-10T09:07:55.259Z,100424.13
2018-09-10T09:10:22.871Z,100429.88
2018-09-10T09:12:50.422Z,100434.56
2018-09-10T09:15:18.352Z,100431.64
2018-09-10T09:17:47.111Z,100430.41
2018-09-10T09:20:14.653Z,100431.43
2018-09-10T09:22:43.197Z,100427.41
2018-09-10T09:25:10.760Z,100428.55
2018-09-10T09:27:39.446Z,100443.13
2018-09-10T09:30:12.023Z,100449.20
2018-09-10T09:32:40.320Z,100443.42
2018-09-10T09:35:07.923Z,100441.94
2018-09-10T09:37:42.330Z,100438.36
2018-09-10T09:40:14.945Z,100429.41
2018-09-10T09:42:48.293Z,100421.61
2018-09-10T09:45:21.390Z,100422.83
2018-09-10T09:47:50.472Z,100429.99
2018-09-10T09:50:18.309Z,100422.95
2018-09-10T09:52:47.514Z,100422.17
2018-09-10T09:55:15.025Z,100423.11
2018-09-10T09:57:44.152Z,100423.36
2018-09-10T10:00:16.690Z,100423.21
2018-09-10T10:02:49.322Z,100436.45
2018-09-10T10:05:17.142Z,100428.42
2018-09-10T10:07:45.445Z,100428.78
2018-09-10T10:10:13.041Z,100432.92
2018-09-10T10:12:41.259Z,100425.70
2018-09-10T10:15:08.856Z,100425.20
2018-09-10T10:17:37.367Z,100423.37
2018-09-10T10:20:06.461Z,100428.59
2018-09-10T10:22:34.048Z,100418.84
2018-09-10T10:25:01.691Z,100421.76
2018-09-10T10:27:30.331Z,100426.78
2018-09-10T10:29:57.932Z,100427.64
2018-09-10T10:32:25.529Z,100425.70
2018-09-10T10:34:53.415Z,100427.37
2018-09-10T10:37:21.540Z,100426.14
2018-09-10T10:39:49.101Z,100424.53
2018-09-10T10:42:17.129Z,100422.00
2018-09-10T10:44:44.774Z,100416.09
2018-09-10T10:47:13.170Z,100425.32
2018-09-10T10:49:41.076Z,100430.78
2018-09-10T10:52:09.039Z,100426.20
2018-09-10T10:54:37.691Z,100438.13
2018-09-10T10:57:05.915Z,100438.59
2018-09-10T10:59:33.466Z,100437.84
2018-09-10T11:02:02.838Z,100439.46
2018-09-10T11:04:30.634Z,100442.31
2018-09-10T11:06:58.235Z,100438.00
2018-09-10T11:09:25.850Z,100428.84
2018-09-10T11:11:54.640Z,100421.38
2018-09-10T11:14:23.057Z,100417.45
2018-09-10T11:16:50.659Z,100429.41
2018-09-10T11:19:19.569Z,100434.00
2018-09-10T11:21:47.147Z,100440.30
2018-09-10T11:24:14.729Z,100437.45
2018-09-10T11:26:44.505Z,100439.09
2018-09-10T11:29:12.046Z,100440.52
2018-09-10T11:31:40.121Z,100436.30
2018-09-10T11:34:09.214Z,100437.84
2018-09-10T11:36:38.590Z,100439.79
2018-09-10T11:39:10.143Z,100439.27
2018-09-10T11:41:38.917Z,100441.78
2018-09-10T11:44:10.008Z,100434.06
2018-09-10T11:46:37.728Z,100433.73
2018-09-10T11:49:06.346Z,100425.77
2018-09-10T11:51:33.939Z,100426.37
2018-09-10T11:54:01.527Z,100437.37
2018-09-10T11:56:29.563Z,100432.16
2018-09-10T11:58:58.041Z,100429.20
2018-09-10T12:01:25.573Z,100436.06
2018-09-10T12:03:54.702Z,100430.06
2018-09-10T12:06:22.302Z,100430.30
2018-09-10T12:08:49.896Z,100424.77
2018-09-10T12:11:18.808Z,100424.07
2018-09-10T12:13:48.186Z,100429.51
2018-09-10T12:16:16.330Z,100433.45
2018-09-10T12:18:44.340Z,100438.77
2018-09-10T12:21:11.885Z,100439.89
2018-09-10T12:23:39.469Z,100446.47
2018-09-10T12:26:07.491Z,100448.94
2018-09-10T12:28:38.229Z,100453.13
2018-09-10T12:31:06.387Z,100465.31
2018-09-10T12:33:34.307Z,100474.05
2018-09-10T12:36:04.103Z,100472.14
2018-09-10T12:38:32.095Z,100470.73
2018-09-10T12:41:00.447Z,100479.14
2018-09-10T12:43:28.728Z,100480.23
2018-09-10T12:45:56.458Z,100484.32
2018-09-10T12:48:25.078Z,100485.38
2018-09-10T12:50:52.691Z,100483.34
2018-09-10T12:53:20.267Z,100489.80
2018-09-10T12:55:48.214Z,100491.06
2018-09-10T12:58:15.769Z,100497.86
2018-09-10T13:00:44.359Z,100498.74
2018-09-10T13:03:12.346Z,100495.22
2018-09-10T13:05:40.023Z,100494.89
2018-09-10T13:08:07.664Z,100495.92
2018-09-10T13:10:35.744Z,100501.85
2018-09-10T13:13:04.218Z,100501.83
2018-09-10T13:15:31.739Z,100504.00
2018-09-10T13:18:00.659Z,100504.09
2018-09-10T13:20:28.205Z,100495.88
2018-09-10T13:22:55.760Z,100496.36
2018-09-10T13:25:23.843Z,100486.93
2018-09-10T13:27:51.450Z,100495.08
2018-09-10T13:30:19.033Z,100486.98
2018-09-10T13:32:47.021Z,100473.45
2018-09-10T13:35:14.644Z,100466.32
2018-09-10T13:37:42.246Z,100456.30
2018-09-10T13:40:12.004Z,100453.11
2018-09-10T13:42:39.745Z,100445.74
2018-09-10T13:45:07.303Z,100437.01
2018-09-10T13:47:36.813Z,100455.58
2018-09-10T13:50:04.970Z,100453.11
2018-09-10T13:52:32.490Z,100457.09
2018-09-10T13:55:01.146Z,100457.98
2018-09-10T13:57:29.256Z,100463.09
2018-09-10T13:59:59.267Z,100467.25
2018-09-10T14:02:28.199Z,100465.35
2018-09-10T14:04:58.438Z,100461.73
2018-09-10T14:07:28.971Z,100464.91
2018-09-10T14:10:00.622Z,100444.88
2018-09-10T14:12:29.148Z,100456.61
2018-09-10T14:14:57.945Z,100460.53
2018-09-10T14:17:27.444Z,100466.33
2018-09-10T14:19:55.674Z,100482.19
2018-09-10T14:22:23.246Z,100484.13
2018-09-10T14:24:51.260Z,100463.14
2018-09-10T14:27:18.859Z,100447.91
2018-09-10T14:29:46.687Z,100451.98
2018-09-10T14:32:14.698Z,100463.14
2018-09-10T14:34:43.698Z,100454.76
2018-09-10T14:37:13.180Z,100452.19
2018-09-10T14:39:42.739Z,100452.84
2018-09-10T14:42:11.369Z,100458.41
2018-09-10T14:44:39.759Z,100463.34
2018-09-10T14:47:07.671Z,100461.57
2018-09-10T14:49:35.934Z,100463.72
2018-09-10T14:52:04.038Z,100459.58
2018-09-10T14:54:31.952Z,100454.83
2018-09-10T14:57:00.019Z,100447.14
2018-09-10T14:59:27.598Z,100457.91
2018-09-10T15:01:57.195Z,100457.59
2018-09-10T15:04:26.773Z,100461.52
2018-09-10T15:06:54.404Z,100466.06
2018-09-10T15:09:22.936Z,100467.75
2018-09-10T15:11:51.217Z,100463.20
2018-09-10T15:14:18.771Z,100471.36
2018-09-10T15:16:46.715Z,100483.41
2018-09-10T15:19:14.468Z,100495.63
2018-09-10T15:21:42.585Z,100496.16
2018-09-10T15:24:10.530Z,100495.38
2018-09-10T15:26:38.080Z,100502.38
2018-09-10T15:29:06.959Z,100492.66
2018-09-10T15:31:36.158Z,100492.00
2018-09-10T15:34:04.453Z,100496.32
2018-09-10T15:36:32.083Z,100491.45
2018-09-10T15:38:59.949Z,100494.73
2018-09-10T15:41:27.526Z,100497.06
2018-09-10T15:43:57.259Z,100502.57
2018-09-10T15:46:24.829Z,100500.59
2018-09-10T15:48:52.498Z,100499.92
2018-09-10T15:51:20.499Z,100503.38
2018-09-10T15:53:48.877Z,100503.09
2018-09-10T15:56:16.504Z,100502.80
2018-09-10T15:58:44.440Z,100500.78
2018-09-10T16:01:11.978Z,100498.59
2018-09-10T16:03:39.935Z,100488.64
2018-09-10T16:06:07.857Z,100487.63
2018-09-10T16:08:35.449Z,100479.71
2018-09-10T16:11:02.991Z,100478.25
2018-09-10T16:13:30.919Z,100463.34
2018-09-10T16:15:58.462Z,100460.33
2018-09-10T16:18:33.230Z,100455.66
2018-09-10T16:21:01.452Z,100453.98
2018-09-10T16:23:29.053Z,100465.55
2018-09-10T16:25:56.627Z,100473.20
2018-09-10T16:28:28.359Z,100482.20
2018-09-10T16:30:56.929Z,100477.63
2018-09-10T16:33:24.530Z,100482.55
2018-09-10T16:35:52.649Z,100480.55
2018-09-10T16:38:21.283Z,100481.41
2018-09-10T16:40:49.623Z,100485.65
2018-09-10T16:43:17.516Z,100478.22
2018-09-10T16:45:45.030Z,100471.81
2018-09-10T16:48:13.359Z,100469.77
2018-09-10T16:50:44.549Z,100461.67
2018-09-10T16:53:12.461Z,100451.53
2018-09-10T16:55:41.373Z,100455.44
2018-09-10T16:58:11.203Z,100454.62
2018-09-10T17:00:38.714Z,100465.99
2018-09-10T17:03:06.318Z,100465.67
2018-09-10T17:05:34.961Z,100475.69
2018-09-10T17:08:02.591Z,100479.09
2018-09-10T17:10:30.963Z,100480.98
2018-09-10T17:13:00.452Z,100480.98
2018-09-10T17:15:29.126Z,100477.28
2018-09-10T17:17:57.894Z,100472.23
2018-09-10T17:20:25.882Z,100463.08
2018-09-10T17:22:53.444Z,100471.57
2018-09-10T17:25:22.044Z,100465.33
2018-09-10T17:27:49.933Z,100464.80
2018-09-10T17:30:17.514Z,100461.27
2018-09-10T17:32:45.894Z,100464.30
2018-09-10T17:35:14.730Z,100459.41
2018-09-10T17:37:43.456Z,100468.55
2018-09-10T17:40:12.005Z,100475.18
2018-09-10T17:42:40.150Z,100464.02
2018-09-10T17:45:07.682Z,100468.44
2018-09-10T17:47:38.623Z,100464.86
2018-09-10T17:50:06.559Z,100477.06
2018-09-10T17:52:34.875Z,100483.00
2018-09-10T17:55:05.801Z,100481.64
2018-09-10T17:57:33.758Z,100493.31
2018-09-10T18:00:02.769Z,100495.35
2018-09-10T18:02:30.866Z,100500.59
2018-09-10T18:04:59.470Z,100499.59
2018-09-10T18:07:27.809Z,100503.97
2018-09-10T18:09:55.402Z,100511.42
2018-09-10T18:12:23.430Z,100519.02
2018-09-10T18:14:55.467Z,100524.12
2018-09-10T18:17:25.917Z,100531.02
2018-09-10T18:19:55.637Z,100526.13
2018-09-10T18:25:16.413Z,100541.97
2018-09-10T18:27:46.557Z,100541.28
2018-09-10T18:30:14.349Z,100548.36
2018-09-10T18:32:42.318Z,100552.41
2018-09-10T18:35:14.484Z,100541.42
2018-09-10T18:37:44.243Z,100540.72
2018-09-10T18:40:12.289Z,100535.97
2018-09-10T18:42:39.844Z,100536.28
2018-09-10T18:45:07.439Z,100533.22
2018-09-10T18:47:35.628Z,100534.55
2018-09-10T18:50:03.346Z,100529.11
2018-09-10T18:52:36.214Z,100521.99
2018-09-10T18:55:04.668Z,100510.48
2018-09-10T18:57:35.373Z,100498.61
2018-09-10T19:00:03.512Z,100492.31
2018-09-10T19:02:31.855Z,100486.01
2018-09-10T19:05:05.086Z,100483.76
2018-09-10T19:07:35.871Z,100479.17
2018-09-10T19:10:04.889Z,100475.91
2018-09-10T19:12:32.668Z,100471.00
2018-09-10T19:15:00.527Z,100462.19
2018-09-10T19:17:28.352Z,100464.88
2018-09-10T19:19:56.673Z,100465.70
2018-09-10T19:22:25.442Z,100462.47
2018-09-10T19:24:53.878Z,100462.28
2018-09-10T19:27:22.092Z,100459.36
2018-09-10T19:29:50.667Z,100465.42
2018-09-10T19:32:20.003Z,100464.56
2018-09-10T19:34:47.684Z,100470.47
2018-09-10T19:37:17.346Z,100471.82
2018-09-10T19:39:44.956Z,100464.89
2018-09-10T19:42:14.285Z,100480.02
2018-09-10T19:44:42.241Z,100481.54
2018-09-10T19:47:10.451Z,100479.52
2018-09-10T19:49:38.130Z,100479.14
2018-09-10T19:52:07.266Z,100486.55
2018-09-10T19:54:35.846Z,100479.31
2018-09-10T19:57:03.675Z,100484.19
2018-09-10T19:59:32.377Z,100483.84
2018-09-10T20:02:00.918Z,100486.06
2018-09-10T20:04:28.433Z,100475.42
2018-09-10T20:06:56.347Z,100481.30
2018-09-10T20:09:24.698Z,100471.33
2018-09-10T20:11:53.297Z,100469.82
2018-09-10T20:14:22.784Z,100464.23
2018-09-10T20:16:50.330Z,100459.66
2018-09-10T20:19:19.299Z,100459.12
2018-09-10T20:21:47.910Z,100462.44
2018-09-10T20:24:15.800Z,100464.11
2018-09-10T20:26:43.649Z,100470.59
2018-09-10T20:29:11.947Z,100475.79
2018-09-10T20:31:39.885Z,100472.93
2018-09-10T20:34:08.772Z,100470.87
2018-09-10T20:36:38.566Z,100467.00
2018-09-10T20:39:06.263Z,100468.98
2018-09-10T20:41:33.850Z,100481.28
2018-09-10T20:44:01.764Z,100488.30
2018-09-10T20:46:33.139Z,100484.44
2018-09-10T20:49:00.679Z,100484.44
2018-09-10T20:51:30.725Z,100490.80
2018-09-10T20:53:58.238Z,100497.05
2018-09-10T20:56:27.099Z,100490.80
2018-09-10T20:58:55.957Z,100492.98
2018-09-10T21:01:23.798Z,100497.11
2018-09-10T21:03:52.379Z,100493.33
2018-09-10T21:06:20.632Z,100494.13
2018-09-10T21:08:49.394Z,100491.75
2018-09-10T21:11:16.933Z,100485.34
2018-09-10T21:13:44.780Z,100488.80
2018-09-10T21:16:12.406Z,100480.01
2018-09-10T21:18:40.210Z,100473.25
2018-09-10T21:21:08.210Z,100469.49
2018-09-10T21:23:37.216Z,100472.64
2018-09-10T21:26:04.746Z,100479.34
2018-09-10T21:28:33.293Z,100482.83
2018-09-10T21:34:09.691Z,100490.22
2018-09-10T21:36:37.232Z,100493.80
2018-09-10T21:39:04.788Z,100500.45
2018-09-10T21:41:32.703Z,100499.86
2018-09-10T21:44:00.571Z,100507.66
2018-09-10T21:46:32.402Z,100500.55
2018-09-10T21:49:02.498Z,100492.78
2018-09-10T21:51:30.077Z,100493.30
2018-09-10T21:53:58.454Z,100496.50
2018-09-10T21:56:26.506Z,100481.84
2018-09-10T21:58:54.006Z,100474.48
2018-09-10T22:01:21.521Z,100470.50
2018-09-10T22:03:49.439Z,100459.38
2018-09-10T22:06:16.986Z,100455.34
2018-09-10T22:08:44.508Z,100454.48
2018-09-10T22:11:13.168Z,100447.55
2018-09-10T22:13:40.730Z,100442.83
2018-09-10T22:16:08.866Z,100469.27
2018-09-10T22:18:36.744Z,100466.41
2018-09-10T22:21:05.143Z,100455.34
2018-09-10T22:23:32.676Z,100460.13
2018-09-10T22:26:01.570Z,100460.54
2018-09-10T22:28:29.118Z,100446.45
2018-09-10T22:30:56.651Z,100445.64
2018-09-10T22:33:24.658Z,100457.30
2018-09-10T22:35:52.193Z,100465.41
2018-09-10T22:38:19.726Z,100467.29
2018-09-10T22:40:47.220Z,100463.12
2018-09-10T22:43:15.099Z,100460.62
2018-09-10T22:45:42.633Z,100466.20
2018-09-10T22:48:10.176Z,100465.05
2018-09-10T22:50:37.681Z,100462.70
2018-09-10T22:53:05.619Z,100471.94
2018-09-10T22:55:33.145Z,100481.89
2018-09-10T22:58:00.669Z,100474.61
2018-09-10T23:00:29.357Z,100477.11
2018-09-10T23:02:56.861Z,100485.34
2018-09-10T23:05:24.410Z,100490.05
2018-09-10T23:07:52.510Z,100486.67
2018-09-10T23:10:20.418Z,100490.52
2018-09-10T23:12:47.930Z,100503.80
2018-09-10T23:15:15.442Z,100500.41
2018-09-10T23:17:44.973Z,100497.66
2018-09-10T23:20:16.462Z,100502.52
2018-09-10T23:22:43.982Z,100493.89
2018-09-10T23:25:11.513Z,100491.52
2018-09-10T23:27:39.027Z,100490.11
2018-09-10T23:30:07.025Z,100497.66
2018-09-10T23:32:34.538Z,100491.04
2018-09-10T23:35:04.053Z,100497.38
2018-09-10T23:37:32.045Z,100491.61
2018-09-10T23:39:59.574Z,100491.55
2018-09-10T23:42:27.885Z,100498.57
2018-09-10T23:44:55.796Z,100497.83
2018-09-10T23:47:23.342Z,100494.37
2018-09-10T23:49:50.906Z,100499.08
2018-09-10T23:52:18.711Z,100505.12
2018-09-10T23:54:46.235Z,100501.87
2018-09-10T23:57:13.741Z,100506.54
2018-09-10T23:59:41.296Z,100502.81
